• Join FlightAware (Why Join?)
  • Login
  • US Flag 
09:49AM EDT


 

Airport Tracker/Info


-or-


 

Live Flight TrackerFlight Track Log ✈ N55VF ✈ 01-May-2013 ✈ KPOV - KMTN

Flight Track Log - Related Links

Times and Time Zones

All times are in EDT time to prevent confusion due to time zone crossing. See the N55VF flight status page for this flight to view local times or setup timezone preferences in your user account.

Time Position Orientation Groundspeed Altitude Reporting Facility
EDT Latitude Longitude Course Direction KTS MPH feet Rate Location/Type
07:48AM 41.1769 -81.1431 115° Southeast 140 161 3,300  Level Cleveland Center
07:49AM 41.1606 -81.0933 114° Southeast 141 162 4,000 600 Climbing Cleveland Center
07:50AM 41.1419 -81.0436 116° Southeast 141 162 4,500 480 Climbing Cleveland Center
07:51AM 41.1253 -80.9939 114° Southeast 146 168 5,000 540 Climbing Cleveland Center
07:52AM 41.1069 -80.9386 114° Southeast 151 174 5,600 420 Climbing Cleveland Center
07:54AM 41.0658 -80.8808 115° Southeast  Level FlightAware Approximate
07:58AM 41.0060 -80.6640 114° Southeast 148 170 8,100  Level FlightAware
07:58AM 41.0010 -80.6500 115° Southeast 148 170 8,100  Level FlightAware
07:58AM 40.9960 -80.6360 115° Southeast 148 170 8,100  Level FlightAware
07:59AM 40.9910 -80.6220 115° Southeast 148 170 8,100 1,080 Level FlightAware
07:59AM 40.9781 -80.5942 115° Southeast 150 173 9,000 600 Climbing Cleveland Center
08:00AM 40.9594 -80.5392 114° Southeast 155 178 9,000  Level Cleveland Center
08:01AM 40.9364 -80.4786 117° Southeast 165 190 9,000  Level Cleveland Center
08:02AM 40.9156 -80.4183 115° Southeast 170 196 9,000  Level Cleveland Center
08:03AM 40.8944 -80.3606 116° Southeast 176 203 9,000  Level Cleveland Center
08:04AM 40.8714 -80.3003 117° Southeast 176 203 9,000  Level Cleveland Center
08:06AM 40.8400 -80.2250 119° Southeast  Level FlightAware Approximate
08:09AM 40.7558 -80.0019 117° Southeast 176 203 9,000  Level Cleveland Center
08:10AM 40.7408 -79.9556 113° Southeast 176 203 9,000  Level Cleveland Center
08:11AM 40.7197 -79.8956 115° Southeast 176 203 9,000  Level Cleveland Center
08:12AM 40.6983 -79.8381 116° Southeast 176 203 9,000  Level Cleveland Center
08:13AM 40.6689 -79.8001 117° Southeast  Level FlightAware Approximate
08:13AM 40.6753 -79.7836 119° Southeast 176 203 9,000  Level Cleveland Center
08:14AM 40.6449 -79.7392 117° Southeast  Level FlightAware Approximate
08:14AM 40.6539 -79.7264 116° Southeast 176 203 9,000  Level Cleveland Center
08:15AM 40.6209 -79.6784 117° Southeast  Level FlightAware Approximate
08:15AM 40.6325 -79.6692 116° Southeast 176 203 9,000  Level Cleveland Center
08:16AM 40.6114 -79.6094 115° Southeast 176 203 9,000  Level Cleveland Center
08:17AM 40.5900 -79.5550 117° Southeast 176 203 9,000  Level Cleveland Center
08:18AM 40.5686 -79.4981 116° Southeast 176 203 9,000  Level Cleveland Center
08:19AM 40.5472 -79.4408 116° Southeast 176 203 9,000  Level Cleveland Center
08:20AM 40.5236 -79.3839 119° Southeast 176 203 9,000  Level Cleveland Center
08:21AM 40.5022 -79.3269 116° Southeast 176 203 9,000  Level Cleveland Center
08:22AM 40.4808 -79.2703 116° Southeast 176 203 9,100  Climbing Cleveland Center
08:23AM 40.4550 -79.2161 122° Southeast 176 203 9,100  Level Cleveland Center
08:24AM 40.4253 -79.1647 127° Southeast 176 203 9,200  Climbing Cleveland Center
08:25AM 40.3872 -79.1194 138° Southeast 176 203 9,100 -60 Descending Cleveland Center
08:26AM 40.3531 -79.0711 133° Southeast 176 203 9,100  Level Cleveland Center
08:27AM 40.3150 -79.0256 138° Southeast 176 203 9,100  Level Cleveland Center
08:28AM 40.2789 -78.9775 135° Southeast 176 203 9,100  Level Cleveland Center
08:29AM 40.2428 -78.9319 136° Southeast 176 203 9,100  Level Cleveland Center
08:30AM 40.2089 -78.8867 134° Southeast 176 203 9,100  Level Cleveland Center
08:31AM 40.1706 -78.8386 136° Southeast 176 203 9,100  Level Cleveland Center
08:32AM 40.1364 -78.7936 135° Southeast 171 197 9,100  Level Cleveland Center
08:33AM 40.1003 -78.7456 134° Southeast 171 197 9,100  Level Cleveland Center
08:34AM 40.0642 -78.6978 135° Southeast 171 197 9,100  Level Cleveland Center
08:35AM 40.0258 -78.6528 138° Southeast 171 197 9,100  Level Cleveland Center
08:36AM 39.9875 -78.6050 136° Southeast 171 197 9,100  Level Cleveland Center
08:37AM 39.9533 -78.5572 133° Southeast 176 203 9,100  Level Cleveland Center
08:39AM 39.8936 -78.4878 138° Southeast 162 186 9,100  Level Washington Center
08:40AM 39.8492 -78.4292 135° Southeast 195 224 9,100  Level Washington Center
08:41AM 39.8125 -78.3844 137° Southeast 190 219 9,100  Level Washington Center
08:42AM 39.7783 -78.3372 133° Southeast 184 212 9,200  Climbing Washington Center
08:43AM 39.7417 -78.2928 137° Southeast 184 212 9,100 -60 Descending Washington Center
08:44AM 39.7053 -78.2456 135° Southeast 184 212 9,100  Level Washington Center
08:45AM 39.6961 -78.1886 102° East 171 197 9,100  Level Washington Center
08:46AM 39.6850 -78.1261 103° East 165 190 9,100  Level Washington Center
08:47AM 39.6758 -78.0639 101° East 170 196 9,100  Level Washington Center
08:48AM 39.6644 -78.0094 105° East 170 196 9,100  Level Washington Center
08:49AM 39.6553 -77.9472 101° East 170 196 9,100  Level Washington Center
08:50AM 39.6461 -77.8850 101° East 170 196 9,100  Level Washington Center
08:51AM 39.6347 -77.8253 104° East 170 196 9,100  Level Washington Center
08:52AM 39.6256 -77.7603 100° East 170 196 9,100  Level Washington Center
08:53AM 39.6139 -77.7008 104° East 170 196 9,100  Level Washington Center
08:54AM 39.6025 -77.6358 103° East 170 196 9,100  Level Washington Center
08:55AM 39.5953 -77.5764 99° East 170 196 9,100 -600 Level Washington Center
09:00AM 39.5360 -77.1950 99° East 201 231 5,400 -660 Descending FlightAware
09:01AM 39.5270 -77.1570 107° East 195 224 5,100 -600 Descending FlightAware
09:01AM 39.5200 -77.1330 111° Southeast 188 216 4,900 -600 Descending FlightAware
09:02AM 39.5100 -77.0990 111° Southeast 185 213 4,600 -300 Descending FlightAware
09:02AM 39.5050 -77.0780 107° East 177 204 4,600  Level FlightAware
09:03AM 39.4970 -77.0470 108° East 169 194 4,600  Level FlightAware
09:03AM 39.4900 -77.0220 110° East 164 189 4,600 -360 Level FlightAware
09:04AM 39.4830 -76.9970 110° East 169 194 4,300 -900 Descending FlightAware
09:04AM 39.4730 -76.9570 108° East 189 217 3,700 -1,020 Descending FlightAware
09:05AM 39.4670 -76.9370 111° Southeast 189 217 3,400 -780 Descending FlightAware
09:05AM 39.4580 -76.9040 109° East 183 211 3,000 -660 Descending FlightAware
09:06AM 39.4520 -76.8790 107° East 179 206 2,800 -600 Descending FlightAware
09:06AM 39.4430 -76.8480 111° Southeast 176 203 2,500 -300 Descending FlightAware
09:07AM 39.4370 -76.8240 108° East 159 183 2,500  Level FlightAware
09:07AM 39.4300 -76.7980 109° East 156 180 2,500  Level FlightAware
09:07AM 39.4270 -76.7870 109° East 155 178 2,500  Level FlightAware
09:08AM 39.4220 -76.7680 109° East 155 178 2,500  Level FlightAware
09:08AM 39.4120 -76.7310 109° East 155 178 2,500 -120 Level FlightAware
09:09AM 39.4030 -76.6970 109° East 153 176 2,400 -420 Descending FlightAware
09:09AM 39.3990 -76.6840 112° Southeast 167 192 2,100 -420 Descending FlightAware
09:10AM 39.3940 -76.6630 107° East 167 192 2,100  Level FlightAware
09:11AM 39.3740 -76.5910 110° East 129 148 2,100 60 Level FlightAware
09:12AM 39.3667 -76.5333 110° East 122 140 2,400 -120 Climbing Potomac TRACON
09:13AM 39.3500 -76.5000 123° Southeast 106 122 1,900 -600 Descending Potomac TRACON
09:14AM 39.3333 -76.4667 123° Southeast 109 125 1,200 -540 Descending Potomac TRACON
09:15AM 39.3167 -76.4333 123° Southeast 110 127 900 -360 Descending Potomac TRACON
09:16AM 39.3000 -76.4167 142° Southeast 107 123 500 -420 Descending Potomac TRACON
09:18AM 39.3167 -76.4000 113° Southeast  Level FlightAware Approximate
09:25AM 39.3257 -76.4138 113° Southeast  Level Estimated
09:26AM 39.3257 -76.4138 113° Southeast  Level Estimated
09:27AM 39.3257 -76.4138 113° Southeast  Level Estimated
09:28AM 39.3257 -76.4138 113° Southeast  Level Estimated